Time;durP1;ratioP1;P1;durP2;ratioP2;P2;SDS_P1;SDS_P2;PMS_P1;PMS_P2;Temp;Humidity;BMP_temperature;BMP_pressure;BME280_temperature;BME280_humidity;BME280_pressure;Samples;Min_cycle;Max_cycle;Signal;HPM_P1;HPM_P2
2022/05/20 00:08:20;;;;;;;33.33;24.65;;;;;;;;;;6319586;22;20567;31
2022/05/20 00:17:28;;;;;;;31.85;24.15;;;;;;;;;;6286730;22;20203;31
2022/05/20 00:21:55;;;;;;;34.88;25.40;;;;;;;;;;6345038;22;20536;31
2022/05/20 00:38:18;;;;;;;43.60;31.25;;;;;;;;;;6253912;22;20212;31
2022/05/20 00:43:13;;;;;;;48.03;33.33;;;;;;;;;;6169358;22;21751;31
2022/05/20 00:59:45;;;;;;;50.15;36.50;;;;;;;;;;6171651;22;20202;31
2022/05/20 01:19:08;;;;;;;56.78;39.03;;;;;;;;;;6164600;22;20527;31
2022/05/20 01:28:20;;;;;;;58.90;39.63;;;;;;;;;;6224125;22;20197;31
2022/05/20 01:32:36;;;;;;;55.20;39.47;;;;;;;;;;6259027;22;20535;-63
2022/05/20 01:49:29;;;;;;;52.83;37.75;;;;;;;;;;6342274;22;20186;-63
2022/05/20 01:53:38;;;;;;;57.95;40.53;;;;;;;;;;6319905;22;20544;31
2022/05/20 02:00:10;;;;;;;60.33;41.72;;;;;;;;;;5835579;22;20551;-64
2022/05/20 02:02:36;;;;;;;58.97;40.42;;;;;;;;;;5827256;22;20196;31
2022/05/20 02:09:34;;;;;;;58.58;40.08;;;;;;;;;;6193327;22;20193;31
2022/05/20 02:13:31;;;;;;;56.03;40.17;;;;;;;;;;6165103;22;20526;31
2022/05/20 02:22:39;;;;;;;56.58;39.58;;;;;;;;;;6140358;23;20200;31
2022/05/20 02:29:59;;;;;;;54.47;40.92;;;;;;;;;;6319151;22;20203;31
2022/05/20 02:41:29;;;;;;;52.85;38.60;;;;;;;;;;6332206;22;20563;31
2022/05/20 02:44:01;;;;;;;52.45;38.65;;;;;;;;;;6329058;22;20180;31
2022/05/20 02:55:54;;;;;;;56.28;39.50;;;;;;;;;;6257545;22;23410;31
2022/05/20 03:12:59;;;;;;;49.85;37.53;;;;;;;;;;6224352;22;20208;-63
2022/05/20 03:17:23;;;;;;;47.15;34.60;;;;;;;;;;6288418;22;20515;31
2022/05/20 03:26:30;;;;;;;48.17;34.83;;;;;;;;;;6194278;22;20536;31
2022/05/20 03:33:40;;;;;;;43.05;31.75;;;;;;;;;;6286803;22;20203;31
2022/05/20 03:37:53;;;;;;;41.63;31.13;;;;;;;;;;6289359;22;20515;31
2022/05/20 03:44:43;;;;;;;41.80;29.60;;;;;;;;;;6226746;22;20555;31
2022/05/20 03:51:21;;;;;;;37.08;27.58;;;;;;;;;;6168040;22;23442;31
2022/05/20 04:08:01;;;;;;;31.45;26.20;;;;;;;;;;6288435;22;20200;31
2022/05/20 04:33:16;;;;;;;25.70;22.10;;;;;;;;;;6290724;22;20272;31
2022/05/20 05:02:44;;;;;;;15.20;11.00;;;;;;;;;;6253814;22;21450;31
2022/05/20 05:07:11;;;;;;;14.80;10.82;;;;;;;;;;6257525;22;20563;31
2022/05/20 05:20:43;;;;;;;19.30;11.90;;;;;;;;;;6258175;22;20540;31
2022/05/20 05:30:05;;;;;;;16.17;12.43;;;;;;;;;;6135527;23;20834;31
2022/05/20 05:37:14;;;;;;;14.48;10.77;;;;;;;;;;6286584;22;20938;31
2022/05/20 05:44:32;;;;;;;12.88;9.57;;;;;;;;;;6225730;22;20197;31
2022/05/20 05:49:21;;;;;;;12.70;10.27;;;;;;;;;;6175057;22;20561;31
2022/05/20 05:51:54;;;;;;;13.05;10.05;;;;;;;;;;6171435;22;20195;31
2022/05/20 05:58:28;;;;;;;14.23;10.63;;;;;;;;;;6135675;23;20211;31
2022/05/20 06:05:46;;;;;;;13.10;9.73;;;;;;;;;;6149296;23;20195;-62
2022/05/20 06:21:37;;;;;;;;;;;;;;;;;;;;;
2022/05/20 06:33:31;;;;;;;11.35;8.65;;;;;;;;;;6335318;22;21796;31
2022/05/20 06:47:34;;;;;;;8.77;7.03;;;;;;;;;;6262222;22;20542;31
2022/05/20 06:54:31;;;;;;;7.75;6.40;;;;;;;;;;6170922;22;20510;-62
2022/05/20 07:15:38;;;;;;;5.53;4.55;;;;;;;;;;6347649;22;20536;31
2022/05/20 07:31:56;;;;;;;2.80;2.60;;;;;;;;;;6144706;23;20203;31
2022/05/20 07:41:11;;;;;;;3.40;3.10;;;;;;;;;;6161809;22;1183819;-62
2022/05/20 07:43:38;;;;;;;3.22;2.92;;;;;;;;;;6227470;23;20249;-62
2022/05/20 07:46:04;;;;;;;3.55;3.25;;;;;;;;;;6227074;23;20175;-62
2022/05/20 07:48:30;;;;;;;3.13;2.80;;;;;;;;;;6226450;23;20147;-61
2022/05/20 07:51:04;;;;;;;2.80;2.60;;;;;;;;;;6226280;23;20438;-61
2022/05/20 07:53:43;;;;;;;3.08;2.47;;;;;;;;;;6226037;23;20168;-61
2022/05/20 07:56:18;;;;;;;2.80;2.47;;;;;;;;;;6226192;23;20132;-62
2022/05/20 07:58:49;;;;;;;3.25;2.60;;;;;;;;;;6224699;23;20143;-62
2022/05/20 08:01:16;;;;;;;2.97;2.60;;;;;;;;;;6199167;23;20152;-62
2022/05/20 08:06:27;;;;;;;3.20;2.50;;;;;;;;;;6224528;23;20140;-59
2022/05/20 08:08:54;;;;;;;4.20;2.30;;;;;;;;;;6224536;23;20144;-62
2022/05/20 08:11:19;;;;;;;4.15;2.60;;;;;;;;;;6224669;23;20215;-63
2022/05/20 08:13:47;;;;;;;3.17;2.40;;;;;;;;;;6222822;23;20190;-62
2022/05/20 08:16:13;;;;;;;3.15;2.30;;;;;;;;;;6222450;23;20136;-62
2022/05/20 08:18:39;;;;;;;2.47;2.28;;;;;;;;;;6224014;23;20191;-63
2022/05/20 08:21:05;;;;;;;3.10;2.50;;;;;;;;;;6223793;23;20158;-62
2022/05/20 08:23:32;;;;;;;2.75;2.38;;;;;;;;;;6222952;23;20180;-62
2022/05/20 08:25:57;;;;;;;2.90;2.20;;;;;;;;;;6222387;23;20143;-60
2022/05/20 08:28:23;;;;;;;2.85;2.60;;;;;;;;;;6223054;23;20167;-62
2022/05/20 08:30:49;;;;;;;2.47;1.80;;;;;;;;;;6224131;23;20160;-62
2022/05/20 08:33:15;;;;;;;2.83;2.42;;;;;;;;;;6224395;23;20156;-62
2022/05/20 08:35:41;;;;;;;2.50;2.30;;;;;;;;;;6224277;23;20233;-62
2022/05/20 08:38:07;;;;;;;4.28;2.38;;;;;;;;;;6224467;23;20151;-62
2022/05/20 08:40:36;;;;;;;2.47;2.25;;;;;;;;;;6224352;23;20139;-62
2022/05/20 08:43:02;;;;;;;3.13;2.40;;;;;;;;;;6224556;23;20144;-63
2022/05/20 08:45:29;;;;;;;3.75;2.20;;;;;;;;;;6226281;23;20172;-63
2022/05/20 08:47:56;;;;;;;2.53;2.00;;;;;;;;;;6228482;23;20210;-63
2022/05/20 08:50:24;;;;;;;2.50;2.08;;;;;;;;;;6217578;23;20141;-63
2022/05/20 08:52:51;;;;;;;2.60;2.20;;;;;;;;;;6217378;23;20244;-63
2022/05/20 08:55:17;;;;;;;3.58;2.10;;;;;;;;;;6217441;23;20583;-64
2022/05/20 08:57:46;;;;;;;2.20;2.00;;;;;;;;;;6217247;23;20136;-63
2022/05/20 09:00:13;;;;;;;5.03;2.17;;;;;;;;;;6217728;23;20140;-65
2022/05/20 09:02:39;;;;;;;2.95;2.00;;;;;;;;;;6217349;23;20151;-65
2022/05/20 09:05:13;;;;;;;3.63;2.13;;;;;;;;;;6217292;23;20179;-64
2022/05/20 09:07:54;;;;;;;3.13;2.00;;;;;;;;;;6217469;23;20158;-62
2022/05/20 09:10:28;;;;;;;3.78;2.05;;;;;;;;;;6217405;23;20183;-64
2022/05/20 09:13:04;;;;;;;2.17;2.00;;;;;;;;;;6217411;23;20136;-61
2022/05/20 09:15:46;;;;;;;2.75;2.50;;;;;;;;;;6217489;23;20164;-64
2022/05/20 09:18:31;;;;;;;2.33;1.90;;;;;;;;;;6217556;23;20182;-64
2022/05/20 09:20:58;;;;;;;2.92;2.00;;;;;;;;;;6217469;23;20164;-63
2022/05/20 09:23:24;;;;;;;2.38;2.10;;;;;;;;;;6217008;23;20152;-63
2022/05/20 09:26:02;;;;;;;3.17;2.20;;;;;;;;;;6217195;23;20155;-64
2022/05/20 09:28:36;;;;;;;3.45;2.40;;;;;;;;;;6217114;23;20601;-63
2022/05/20 09:31:12;;;;;;;4.15;2.67;;;;;;;;;;6216875;23;20213;-63
2022/05/20 09:33:38;;;;;;;2.05;1.88;;;;;;;;;;6217523;23;20136;-63
2022/05/20 09:36:05;;;;;;;1.90;1.80;;;;;;;;;;6216720;23;20168;-63
2022/05/20 09:38:36;;;;;;;2.97;1.90;;;;;;;;;;6216760;23;20141;-63
2022/05/20 09:41:22;;;;;;;2.85;1.92;;;;;;;;;;6217035;23;20167;-64
2022/05/20 09:43:58;;;;;;;3.97;1.85;;;;;;;;;;6216460;23;20201;-65
2022/05/20 09:46:29;;;;;;;1.90;1.70;;;;;;;;;;6216816;23;20198;-62
2022/05/20 09:49:02;;;;;;;1.60;1.50;;;;;;;;;;6216752;23;20223;-64
2022/05/20 09:51:35;;;;;;;2.20;2.00;;;;;;;;;;6217157;23;20132;-64
2022/05/20 09:54:09;;;;;;;2.42;1.50;;;;;;;;;;6216645;23;20140;-64
2022/05/20 09:56:39;;;;;;;2.90;1.65;;;;;;;;;;6216443;23;20132;-63
2022/05/20 09:59:13;;;;;;;1.60;1.50;;;;;;;;;;6216113;23;20176;-62
2022/05/20 10:01:40;;;;;;;1.65;1.35;;;;;;;;;;6216390;23;20135;-63
2022/05/20 10:04:09;;;;;;;2.05;1.90;;;;;;;;;;6216736;23;20187;-61
2022/05/20 10:06:39;;;;;;;1.75;1.52;;;;;;;;;;6216602;23;20205;-62
2022/05/20 10:09:16;;;;;;;2.33;1.50;;;;;;;;;;6216450;23;20147;-62
2022/05/20 10:11:49;;;;;;;2.20;1.60;;;;;;;;;;6216311;23;20136;-62
2022/05/20 10:14:17;;;;;;;1.70;1.60;;;;;;;;;;6216535;23;20191;-62
2022/05/20 10:16:55;;;;;;;1.50;1.40;;;;;;;;;;6216715;23;20144;-62
2022/05/20 10:19:42;;;;;;;2.47;1.73;;;;;;;;;;6216393;23;20488;-62
2022/05/20 10:22:15;;;;;;;1.80;1.70;;;;;;;;;;6190473;23;20148;-63
2022/05/20 10:25:04;;;;;;;2.17;1.80;;;;;;;;;;6216393;23;20151;-63
2022/05/20 10:27:35;;;;;;;2.05;1.85;;;;;;;;;;6216631;23;20140;-63
2022/05/20 10:32:58;;;;;;;2.20;2.00;;;;;;;;;;6216327;23;20228;-62
2022/05/20 10:35:25;;;;;;;2.28;1.67;;;;;;;;;;6189874;23;20172;-63
2022/05/20 10:38:03;;;;;;;2.25;1.75;;;;;;;;;;6216475;23;20156;-63
2022/05/20 10:40:33;;;;;;;1.85;1.75;;;;;;;;;;6216013;23;20125;-63
2022/05/20 10:43:18;;;;;;;2.05;1.80;;;;;;;;;;6216384;23;20144;-63
2022/05/20 10:48:39;;;;;;;1.88;1.77;;;;;;;;;;6216460;23;20139;-64
2022/05/20 10:51:08;;;;;;;1.90;1.60;;;;;;;;;;6216127;23;20160;-63
2022/05/20 10:53:40;;;;;;;2.55;2.00;;;;;;;;;;6215838;23;20180;-63
2022/05/20 10:56:23;;;;;;;2.45;1.67;;;;;;;;;;6216053;23;20247;-64
2022/05/20 10:58:49;;;;;;;1.92;1.83;;;;;;;;;;6216507;23;20124;-64
2022/05/20 11:01:36;;;;;;;2.70;2.10;;;;;;;;;;6215941;23;20168;-64
2022/05/20 11:04:17;;;;;;;2.20;1.83;;;;;;;;;;6215651;23;20153;-63
2022/05/20 11:07:02;;;;;;;2.85;2.13;;;;;;;;;;6216500;23;20143;-62
2022/05/20 11:09:40;;;;;;;2.15;1.95;;;;;;;;;;6215817;23;20148;-62
2022/05/20 11:12:06;;;;;;;2.72;2.50;;;;;;;;;;6215838;23;20137;-63
2022/05/20 11:14:41;;;;;;;1.90;1.67;;;;;;;;;;6215708;23;20164;-63
2022/05/20 11:17:19;;;;;;;2.42;2.20;;;;;;;;;;6216066;23;20147;-62
2022/05/20 11:19:49;;;;;;;1.88;1.77;;;;;;;;;;6215787;23;20128;-61
2022/05/20 11:22:25;;;;;;;2.50;2.30;;;;;;;;;;6216173;23;20292;-61
2022/05/20 11:25:00;;;;;;;1.85;1.75;;;;;;;;;;6215891;23;20128;-62
2022/05/20 11:27:37;;;;;;;2.88;2.13;;;;;;;;;;6215913;23;20544;-62
2022/05/20 11:30:06;;;;;;;2.50;2.20;;;;;;;;;;6215901;23;20227;-62
2022/05/20 11:32:47;;;;;;;2.72;2.15;;;;;;;;;;6215919;23;20478;-62
2022/05/20 11:35:37;;;;;;;2.40;2.20;;;;;;;;;;6216202;23;20419;-62
2022/05/20 11:38:19;;;;;;;2.42;2.22;;;;;;;;;;6161118;23;20210;-62
2022/05/20 11:40:57;;;;;;;2.88;2.10;;;;;;;;;;6215989;23;20231;-62
2022/05/20 11:43:42;;;;;;;3.97;2.53;;;;;;;;;;6215916;23;20132;-62
2022/05/20 11:46:13;;;;;;;2.90;1.90;;;;;;;;;;6216100;23;20186;-62
2022/05/20 11:48:46;;;;;;;3.33;2.65;;;;;;;;;;6215693;23;20132;-61
2022/05/20 11:51:19;;;;;;;2.47;2.28;;;;;;;;;;6215547;23;20275;-62
2022/05/20 11:53:55;;;;;;;2.25;1.85;;;;;;;;;;6215707;23;20125;-62
2022/05/20 11:56:29;;;;;;;1.95;1.83;;;;;;;;;;6216230;23;20162;-62
2022/05/20 11:59:01;;;;;;;2.30;2.10;;;;;;;;;;6216474;23;20125;-61
2022/05/20 12:01:28;;;;;;;2.50;2.25;;;;;;;;;;6216752;23;20194;-63
2022/05/20 12:04:07;;;;;;;2.13;1.92;;;;;;;;;;6216230;23;20174;-62
2022/05/20 12:06:35;;;;;;;2.28;2.13;;;;;;;;;;6216814;23;20139;-61
2022/05/20 12:09:02;;;;;;;3.10;2.35;;;;;;;;;;6216042;23;20231;-62
2022/05/20 12:11:31;;;;;;;2.50;2.30;;;;;;;;;;6217116;23;20141;-62
2022/05/20 12:14:02;;;;;;;2.20;2.00;;;;;;;;;;6216303;23;20624;-62
2022/05/20 12:16:28;;;;;;;2.72;2.00;;;;;;;;;;6216709;23;20235;-62
2022/05/20 12:24:32;;;;;;;2.40;2.00;;;;;;;;;;6218184;23;20172;-61
2022/05/20 12:26:58;;;;;;;2.10;1.90;;;;;;;;;;6218220;23;20144;-62
2022/05/20 12:29:39;;;;;;;2.65;2.20;;;;;;;;;;6218306;23;20553;-62
2022/05/20 12:32:17;;;;;;;2.58;2.38;;;;;;;;;;6218426;23;20453;-62
2022/05/20 12:34:45;;;;;;;2.22;2.03;;;;;;;;;;6217691;23;20190;-61
2022/05/20 12:37:31;;;;;;;2.20;2.10;;;;;;;;;;6218084;23;20213;-61
2022/05/20 12:39:57;;;;;;;2.95;2.72;;;;;;;;;;6217265;23;20148;-62
2022/05/20 12:42:24;;;;;;;2.28;2.08;;;;;;;;;;6217495;23;20136;-62
2022/05/20 12:44:50;;;;;;;2.45;2.17;;;;;;;;;;6218123;23;20160;-62
2022/05/20 12:47:23;;;;;;;3.22;2.55;;;;;;;;;;6218134;23;20144;-62
2022/05/20 12:49:49;;;;;;;2.53;2.33;;;;;;;;;;6218570;23;20143;-62
2022/05/20 12:52:18;;;;;;;2.90;2.22;;;;;;;;;;6217612;23;20180;-62
2022/05/20 12:54:46;;;;;;;2.30;2.10;;;;;;;;;;6217751;23;20266;-63
2022/05/20 12:57:20;;;;;;;3.63;2.10;;;;;;;;;;6217530;23;20152;-63
2022/05/20 13:00:01;;;;;;;3.50;2.60;;;;;;;;;;6217645;23;20147;-61
2022/05/20 13:02:33;;;;;;;2.33;2.22;;;;;;;;;;6218228;23;20125;-61
2022/05/20 13:05:08;;;;;;;3.10;2.55;;;;;;;;;;6217805;23;20248;-62
2022/05/20 13:07:37;;;;;;;2.80;2.30;;;;;;;;;;6217901;23;20143;-63
2022/05/20 13:10:24;;;;;;;3.17;2.53;;;;;;;;;;6217521;23;20513;-62
2022/05/20 13:12:51;;;;;;;2.30;2.00;;;;;;;;;;6218074;23;20152;-62
2022/05/20 13:15:19;;;;;;;2.47;2.28;;;;;;;;;;6217867;23;20452;-62
2022/05/20 13:17:50;;;;;;;2.42;2.22;;;;;;;;;;6218241;23;20155;-61
2022/05/20 13:20:16;;;;;;;3.70;2.17;;;;;;;;;;6217968;23;20191;-63
2022/05/20 13:22:49;;;;;;;6.13;2.50;;;;;;;;;;6217916;23;20148;-63
2022/05/20 13:25:16;;;;;;;2.35;2.15;;;;;;;;;;6219537;23;20207;-63
2022/05/20 13:27:46;;;;;;;2.15;2.03;;;;;;;;;;6217886;23;20549;-63
2022/05/20 13:30:18;;;;;;;2.20;2.00;;;;;;;;;;6217294;23;20151;-63
2022/05/20 13:32:44;;;;;;;3.20;2.13;;;;;;;;;;6216915;23;20144;-63
2022/05/20 13:35:10;;;;;;;2.75;2.10;;;;;;;;;;6216996;23;20470;-63
2022/05/20 13:37:41;;;;;;;2.85;2.10;;;;;;;;;;6217903;23;20156;-63
2022/05/20 13:40:13;;;;;;;2.30;2.10;;;;;;;;;;6217879;23;20144;-63
2022/05/20 13:42:40;;;;;;;2.55;2.25;;;;;;;;;;6217793;23;20171;-63
2022/05/20 13:45:11;;;;;;;2.60;2.40;;;;;;;;;;6217326;23;20141;-62
2022/05/20 13:50:23;;;;;;;2.55;2.35;;;;;;;;;;6217352;23;20257;-63
2022/05/20 13:52:49;;;;;;;3.78;2.25;;;;;;;;;;6217662;23;20216;-63
2022/05/20 13:55:16;;;;;;;2.55;2.25;;;;;;;;;;6217466;23;20164;-62
2022/05/20 13:57:47;;;;;;;2.20;1.90;;;;;;;;;;6217803;23;20168;-63
2022/05/20 14:00:21;;;;;;;3.35;2.45;;;;;;;;;;6217440;23;20168;-61
2022/05/20 14:02:53;;;;;;;2.30;2.10;;;;;;;;;;6217692;23;20179;-63
2022/05/20 14:05:27;;;;;;;5.10;2.53;;;;;;;;;;6217344;23;20492;-62
2022/05/20 14:07:55;;;;;;;2.72;2.20;;;;;;;;;;6218128;23;20167;-63
2022/05/20 14:10:24;;;;;;;2.80;2.42;;;;;;;;;;6218271;23;20153;-63
2022/05/20 14:12:54;;;;;;;4.13;2.53;;;;;;;;;;6218209;23;20444;-62
2022/05/20 14:15:28;;;;;;;3.85;3.00;;;;;;;;;;6218755;23;20169;-61
2022/05/20 14:17:58;;;;;;;3.25;2.85;;;;;;;;;;6218949;23;20214;-62
2022/05/20 14:20:25;;;;;;;2.70;2.40;;;;;;;;;;6216840;23;20575;-62
2022/05/20 14:22:51;;;;;;;2.70;2.45;;;;;;;;;;6217482;23;20148;-62
2022/05/20 14:25:29;;;;;;;3.22;2.88;;;;;;;;;;6218091;23;20214;-63
2022/05/20 14:28:15;;;;;;;3.35;3.05;;;;;;;;;;6218780;23;20139;-62
2022/05/20 14:31:01;;;;;;;4.65;3.50;;;;;;;;;;6218006;23;20548;-62
2022/05/20 14:33:33;;;;;;;4.18;3.17;;;;;;;;;;6218409;23;20187;-62
2022/05/20 14:36:00;;;;;;;3.78;3.47;;;;;;;;;;6218542;23;20172;-62
2022/05/20 14:38:36;;;;;;;4.15;3.70;;;;;;;;;;6218841;23;20145;-62
2022/05/20 14:41:03;;;;;;;3.83;3.40;;;;;;;;;;6218067;23;20440;-62
2022/05/20 14:43:34;;;;;;;4.40;3.38;;;;;;;;;;6217852;23;20224;-62
2022/05/20 14:46:01;;;;;;;3.83;3.53;;;;;;;;;;6217643;23;20202;-62
2022/05/20 14:48:36;;;;;;;4.45;3.50;;;;;;;;;;6217613;23;20278;-62
2022/05/20 14:51:02;;;;;;;4.93;4.28;;;;;;;;;;6216676;23;20171;-63
2022/05/20 14:53:31;;;;;;;4.18;3.38;;;;;;;;;;6217543;23;20156;-62
2022/05/20 14:55:58;;;;;;;4.85;3.35;;;;;;;;;;6217374;23;20191;-63
2022/05/20 14:58:24;;;;;;;3.40;3.08;;;;;;;;;;6217357;23;20137;-63
2022/05/20 15:00:57;;;;;;;3.20;2.90;;;;;;;;;;6217033;23;20147;-62
2022/05/20 15:03:24;;;;;;;3.15;2.85;;;;;;;;;;6217746;23;20164;-62
2022/05/20 15:05:51;;;;;;;2.85;2.65;;;;;;;;;;6217024;23;20151;-62
2022/05/20 15:08:18;;;;;;;3.47;3.17;;;;;;;;;;6216619;23;20145;-63
2022/05/20 15:10:52;;;;;;;5.15;2.70;;;;;;;;;;6215940;23;20145;-63
2022/05/20 15:13:18;;;;;;;3.25;2.95;;;;;;;;;;6217235;23;20254;-68
2022/05/20 15:15:44;;;;;;;3.65;3.08;;;;;;;;;;6216513;23;20172;-63
2022/05/20 15:18:11;;;;;;;3.67;3.20;;;;;;;;;;6216839;23;20142;-64
2022/05/20 15:20:42;;;;;;;3.60;3.30;;;;;;;;;;6217010;23;20481;-63
2022/05/20 15:23:13;;;;;;;3.45;3.03;;;;;;;;;;6216997;23;20224;-63
2022/05/20 15:25:39;;;;;;;3.88;3.55;;;;;;;;;;6216931;23;20139;-63
2022/05/20 15:28:47;;;;;;;3.85;3.15;;;;;;;;;;6216792;23;20144;-62
2022/05/20 15:30:51;;;;;;;3.45;3.15;;;;;;;;;;6216548;23;20239;-65
2022/05/20 15:36:01;;;;;;;4.65;2.95;;;;;;;;;;6216789;23;20265;-62
2022/05/20 15:38:27;;;;;;;4.05;3.22;;;;;;;;;;6216588;23;20545;-62
2022/05/20 15:40:53;;;;;;;3.45;2.85;;;;;;;;;;6216602;23;20219;-62
2022/05/20 15:43:19;;;;;;;2.70;2.50;;;;;;;;;;6216780;23;20248;-63
2022/05/20 15:45:45;;;;;;;3.20;2.90;;;;;;;;;;6217068;23;20142;-62
2022/05/20 15:48:11;;;;;;;3.28;2.97;;;;;;;;;;6216563;23;20152;-62
2022/05/20 15:50:38;;;;;;;3.80;3.50;;;;;;;;;;6216637;23;20156;-62
2022/05/20 15:53:05;;;;;;;3.67;3.35;;;;;;;;;;6217172;23;20140;-62
2022/05/20 15:55:33;;;;;;;4.85;3.60;;;;;;;;;;6216454;23;20176;-62
2022/05/20 15:58:05;;;;;;;3.42;3.13;;;;;;;;;;6218304;23;20141;-62
2022/05/20 16:00:31;;;;;;;4.82;3.20;;;;;;;;;;6218167;23;20129;-64
2022/05/20 16:02:57;;;;;;;4.63;3.42;;;;;;;;;;6217596;23;20147;-62
2022/05/20 16:05:23;;;;;;;3.72;3.42;;;;;;;;;;6217834;23;20141;-62
2022/05/20 16:07:52;;;;;;;4.00;3.33;;;;;;;;;;6217683;23;20140;-63
2022/05/20 16:10:25;;;;;;;3.83;3.40;;;;;;;;;;6217750;23;20155;-63
2022/05/20 16:12:51;;;;;;;4.10;3.40;;;;;;;;;;6218028;23;20170;-62
2022/05/20 16:15:17;;;;;;;4.72;3.63;;;;;;;;;;6217855;23;20251;-62
2022/05/20 16:17:43;;;;;;;3.97;3.58;;;;;;;;;;6217395;23;20136;-62
2022/05/20 16:20:09;;;;;;;4.10;3.60;;;;;;;;;;6217731;23;20205;-62
2022/05/20 16:22:37;;;;;;;4.20;3.65;;;;;;;;;;6217419;23;20137;-62
2022/05/20 16:25:03;;;;;;;4.07;3.60;;;;;;;;;;6217822;23;20144;-63
2022/05/20 16:27:29;;;;;;;3.78;3.40;;;;;;;;;;6217406;23;20141;-62
2022/05/20 16:29:56;;;;;;;3.78;3.22;;;;;;;;;;6217468;23;20150;-62
2022/05/20 16:32:22;;;;;;;3.67;2.97;;;;;;;;;;6217534;23;20148;-63
2022/05/20 16:34:48;;;;;;;4.25;3.60;;;;;;;;;;6217692;23;20258;-60
2022/05/20 16:37:13;;;;;;;3.55;3.25;;;;;;;;;;6217577;23;20168;-62
2022/05/20 16:39:40;;;;;;;3.47;3.17;;;;;;;;;;6218406;23;20144;-62
2022/05/20 16:42:06;;;;;;;4.75;2.92;;;;;;;;;;6218536;23;20234;-62
2022/05/20 16:44:32;;;;;;;4.45;3.10;;;;;;;;;;6218390;23;20148;-62
2022/05/20 16:46:59;;;;;;;4.70;3.22;;;;;;;;;;6218546;23;20148;-62
2022/05/20 16:49:26;;;;;;;4.72;3.50;;;;;;;;;;6218416;23;20155;-62
2022/05/20 16:51:53;;;;;;;3.88;3.08;;;;;;;;;;6217661;23;20160;-61
2022/05/20 16:54:20;;;;;;;5.20;3.42;;;;;;;;;;6217890;23;20545;-62
2022/05/20 17:02:20;;;;;;;5.32;3.40;;;;;;;;;;6218198;23;20140;-62
2022/05/20 17:04:46;;;;;;;4.28;3.38;;;;;;;;;;6218430;23;20148;-62
2022/05/20 17:07:12;;;;;;;3.80;3.50;;;;;;;;;;6217999;23;20553;-62
2022/05/20 17:09:38;;;;;;;4.28;3.25;;;;;;;;;;6218512;23;20159;-64
2022/05/20 17:12:05;;;;;;;3.55;3.25;;;;;;;;;;6218830;23;20152;-62
2022/05/20 17:14:33;;;;;;;4.28;3.55;;;;;;;;;;6218459;23;20168;-61
2022/05/20 17:16:59;;;;;;;4.82;3.67;;;;;;;;;;6218846;23;20141;-61
2022/05/20 17:19:25;;;;;;;5.00;3.55;;;;;;;;;;6217411;23;20179;-62
2022/05/20 17:24:41;;;;;;;3.95;3.58;;;;;;;;;;6217097;23;20148;-62
2022/05/20 17:27:09;;;;;;;4.43;3.65;;;;;;;;;;6216860;23;20128;-62
2022/05/20 17:29:36;;;;;;;3.97;3.47;;;;;;;;;;6217006;23;20144;-63
2022/05/20 17:32:03;;;;;;;3.63;3.33;;;;;;;;;;6217009;23;20565;-62
2022/05/20 17:34:29;;;;;;;4.03;3.28;;;;;;;;;;6216870;23;20560;-62
2022/05/20 17:36:55;;;;;;;5.15;3.78;;;;;;;;;;6217277;23;20487;-63
2022/05/20 17:39:21;;;;;;;4.43;3.60;;;;;;;;;;6217347;23;20223;-63
2022/05/20 17:41:47;;;;;;;3.85;3.30;;;;;;;;;;6216741;23;20568;-62
2022/05/20 17:44:13;;;;;;;3.88;3.05;;;;;;;;;;6217417;23;20147;-63
2022/05/20 17:46:39;;;;;;;4.40;3.60;;;;;;;;;;6216759;23;20149;-63
2022/05/20 17:49:06;;;;;;;4.15;3.38;;;;;;;;;;6217072;23;20144;-63
2022/05/20 17:51:32;;;;;;;4.07;3.60;;;;;;;;;;6216757;23;20183;-63
2022/05/20 17:53:58;;;;;;;3.63;3.22;;;;;;;;;;6217129;23;20137;-63
2022/05/20 17:56:24;;;;;;;3.50;3.20;;;;;;;;;;6217329;23;20263;-63
2022/05/20 17:58:50;;;;;;;4.07;2.83;;;;;;;;;;6216676;23;20192;-63
2022/05/20 18:01:17;;;;;;;4.05;3.47;;;;;;;;;;6216795;23;20136;-63
2022/05/20 18:03:43;;;;;;;3.25;2.90;;;;;;;;;;6216872;23;20149;-63
2022/05/20 18:06:09;;;;;;;3.72;3.20;;;;;;;;;;6216768;23;20191;-63
2022/05/20 18:08:35;;;;;;;3.55;2.95;;;;;;;;;;6216532;23;20148;-63
2022/05/20 18:11:02;;;;;;;4.75;3.10;;;;;;;;;;6216922;23;20153;-63
2022/05/20 18:13:27;;;;;;;3.42;3.22;;;;;;;;;;6216505;23;20140;-63
2022/05/20 18:15:53;;;;;;;3.90;3.50;;;;;;;;;;6216751;23;20187;-63
2022/05/20 18:18:19;;;;;;;5.03;4.63;;;;;;;;;;6217151;23;20136;-63
2022/05/20 18:20:45;;;;;;;5.57;4.63;;;;;;;;;;6217492;23;20206;-63
2022/05/20 18:23:11;;;;;;;8.23;4.80;;;;;;;;;;6217900;23;20152;-63
2022/05/20 18:25:38;;;;;;;5.03;4.63;;;;;;;;;;6218731;23;20599;-62
2022/05/20 18:28:04;;;;;;;5.00;4.50;;;;;;;;;;6218608;23;20210;-62
2022/05/20 18:30:30;;;;;;;4.72;4.32;;;;;;;;;;6218032;23;20434;-63
2022/05/20 18:32:57;;;;;;;5.63;5.03;;;;;;;;;;6217596;23;20601;-61
2022/05/20 18:40:52;;;;;;;5.13;4.60;;;;;;;;;;6217443;23;20462;-61
2022/05/20 18:43:18;;;;;;;5.70;5.13;;;;;;;;;;6217121;23;20141;-61
2022/05/20 18:45:44;;;;;;;5.68;5.18;;;;;;;;;;6217449;23;20455;-61
2022/05/20 18:48:11;;;;;;;5.95;5.35;;;;;;;;;;6217615;23;20239;-62
2022/05/20 18:50:37;;;;;;;5.47;4.97;;;;;;;;;;6217048;23;20163;-60
2022/05/20 18:53:03;;;;;;;6.07;5.38;;;;;;;;;;6216845;23;20156;-62
2022/05/20 18:55:30;;;;;;;6.25;5.65;;;;;;;;;;6217006;23;20169;-62
2022/05/20 18:57:56;;;;;;;6.40;5.35;;;;;;;;;;6217497;23;20215;-60
2022/05/20 19:00:24;;;;;;;6.00;5.40;;;;;;;;;;6190860;23;20195;-61
2022/05/20 19:02:50;;;;;;;5.90;5.18;;;;;;;;;;6216966;23;20149;-62
2022/05/20 19:05:17;;;;;;;6.20;5.55;;;;;;;;;;6216913;23;20157;-62
2022/05/20 19:07:43;;;;;;;7.57;5.88;;;;;;;;;;6217063;23;20144;-62
2022/05/20 19:10:10;;;;;;;6.35;5.68;;;;;;;;;;6216788;23;20145;-62
2022/05/20 19:12:37;;;;;;;6.57;5.93;;;;;;;;;;6217238;23;20156;-64
2022/05/20 19:15:04;;;;;;;7.05;6.00;;;;;;;;;;6217113;23;20165;-62
2022/05/20 19:17:29;;;;;;;6.28;5.68;;;;;;;;;;6217604;23;20146;-62
2022/05/20 19:19:55;;;;;;;6.43;5.72;;;;;;;;;;6217144;23;20200;-61
2022/05/20 19:22:21;;;;;;;6.30;5.70;;;;;;;;;;6217064;23;20520;-61
2022/05/20 19:24:47;;;;;;;6.70;5.85;;;;;;;;;;6217188;23;20141;-61
2022/05/20 19:27:13;;;;;;;6.38;5.78;;;;;;;;;;6217282;23;20347;-61
2022/05/20 19:29:39;;;;;;;6.07;5.47;;;;;;;;;;6217101;23;20432;-61
2022/05/20 19:32:07;;;;;;;6.10;5.50;;;;;;;;;;6217091;23;20195;-61
2022/05/20 19:34:33;;;;;;;5.85;5.25;;;;;;;;;;6217199;23;20196;-62
2022/05/20 19:37:00;;;;;;;6.00;5.35;;;;;;;;;;6217662;23;20148;-62
2022/05/20 19:39:26;;;;;;;5.72;5.22;;;;;;;;;;6217123;23;20413;-61
2022/05/20 19:41:52;;;;;;;5.88;5.38;;;;;;;;;;6217118;23;20221;-62
2022/05/20 19:44:19;;;;;;;5.70;5.20;;;;;;;;;;6217326;23;20140;-62
2022/05/20 19:46:45;;;;;;;6.20;5.70;;;;;;;;;;6217213;23;20553;-62
2022/05/20 19:49:11;;;;;;;6.43;5.30;;;;;;;;;;6216534;23;20520;-61
2022/05/20 19:51:37;;;;;;;6.47;5.38;;;;;;;;;;6216539;23;20152;-62
2022/05/20 19:54:03;;;;;;;5.57;5.07;;;;;;;;;;6216921;23;20193;-63
2022/05/20 19:56:29;;;;;;;6.55;5.88;;;;;;;;;;6216172;23;20243;-62
2022/05/20 20:01:39;;;;;;;5.75;5.25;;;;;;;;;;6216094;23;20144;-62
2022/05/20 20:04:05;;;;;;;6.35;5.22;;;;;;;;;;6216128;23;20152;-62
2022/05/20 20:06:31;;;;;;;5.70;5.10;;;;;;;;;;6215729;23;20152;-62
2022/05/20 20:09:00;;;;;;;6.63;5.10;;;;;;;;;;6215761;23;20193;-62
2022/05/20 20:11:26;;;;;;;5.65;5.00;;;;;;;;;;6216201;23;20159;-62
2022/05/20 20:13:52;;;;;;;5.50;5.00;;;;;;;;;;6216057;23;20172;-62
2022/05/20 20:16:19;;;;;;;5.40;4.90;;;;;;;;;;6216213;23;20198;-62
2022/05/20 20:18:45;;;;;;;5.63;5.13;;;;;;;;;;6215964;23;20160;-62
2022/05/20 20:26:45;;;;;;;5.47;4.97;;;;;;;;;;6215949;23;20151;-62
2022/05/20 20:29:13;;;;;;;6.63;5.60;;;;;;;;;;6215664;23;20153;-61
2022/05/20 20:31:40;;;;;;;6.47;5.07;;;;;;;;;;6216031;23;20144;-61
2022/05/20 20:34:06;;;;;;;5.93;5.40;;;;;;;;;;6215526;23;20550;-61
2022/05/20 20:36:32;;;;;;;5.88;5.22;;;;;;;;;;6215545;23;20183;-61
2022/05/20 20:38:59;;;;;;;6.28;5.32;;;;;;;;;;6215626;23;20146;-61
2022/05/20 20:41:31;;;;;;;6.70;5.45;;;;;;;;;;6216011;23;20156;-63
2022/05/20 20:43:57;;;;;;;7.15;5.22;;;;;;;;;;6217805;23;20468;-62
2022/05/20 20:46:23;;;;;;;5.95;5.35;;;;;;;;;;6217717;23;20148;-62
2022/05/20 20:48:49;;;;;;;6.38;5.68;;;;;;;;;;6217849;23;20145;-60
2022/05/20 20:51:15;;;;;;;5.63;5.13;;;;;;;;;;6217336;23;20160;-62
2022/05/20 20:53:40;;;;;;;7.90;5.60;;;;;;;;;;6217795;23;20221;-61
2022/05/20 20:56:06;;;;;;;6.82;5.45;;;;;;;;;;6217270;23;20235;-61
2022/05/20 20:58:33;;;;;;;5.90;5.30;;;;;;;;;;6217666;23;20141;-62
2022/05/20 21:00:59;;;;;;;6.47;5.85;;;;;;;;;;6217389;23;20442;-60
2022/05/20 21:03:26;;;;;;;6.10;5.50;;;;;;;;;;6217649;23;20141;-62
2022/05/20 21:05:53;;;;;;;6.88;5.50;;;;;;;;;;6217490;23;20454;-61
2022/05/20 21:08:20;;;;;;;6.55;5.85;;;;;;;;;;6217742;23;20207;-62
2022/05/20 21:10:46;;;;;;;6.22;5.65;;;;;;;;;;6217698;23;20184;-61
2022/05/20 21:13:13;;;;;;;5.68;5.18;;;;;;;;;;6217708;23;20557;-62
2022/05/20 21:15:40;;;;;;;6.68;5.38;;;;;;;;;;6217738;23;20172;-60
2022/05/20 21:18:06;;;;;;;7.13;5.50;;;;;;;;;;6218057;23;20141;-62
2022/05/20 21:20:32;;;;;;;6.78;5.50;;;;;;;;;;6217900;23;20159;-61
2022/05/20 21:22:59;;;;;;;6.30;5.40;;;;;;;;;;6219050;23;20545;-61
2022/05/20 21:25:25;;;;;;;7.13;5.63;;;;;;;;;;6218303;23;20183;-61